N459BE KPIE-K6S0
Flight info
| Callsign | N459BE |
|---|---|
| Flight time | N/A |
| Altitude | 43000 |
| Route | LLRGO1 LACEN AMORY OZR OTB HAKAT TYGER SYTHH KEEFF KUBLE NELKS |
| Aircraft | GLF5/M-BDE3FGHIJ2LRUVWXY/S |
Departure
| Time | N/A |
|---|---|
| Airport | St. Petersburg Clearwater International Airport (KPIE) |
Arrival
| Time | 2026-05-08 22:53 |
|---|---|
| Airport | Big Timber Airport (K6S0) |
| Time | Latitude | Longitude | Altitude | Speed | Heading |
|---|---|---|---|---|---|
| 2026-05-08 22:04 | 43.50280 | -104.29645 | 46997 ft | 428 kts | 300° |
| 2026-05-08 22:05 | 43.51699 | -104.33204 | 47014 ft | 429 kts | 300° |
| 2026-05-08 22:05 | 43.54570 | -104.40416 | 47010 ft | 430 kts | 300° |
| 2026-05-08 22:06 | 43.57436 | -104.47637 | 47016 ft | 430 kts | 300° |
| 2026-05-08 22:06 | 43.60281 | -104.54820 | 47016 ft | 429 kts | 300° |
| 2026-05-08 22:07 | 43.63141 | -104.62057 | 47006 ft | 428 kts | 301° |
| 2026-05-08 22:07 | 43.65987 | -104.69280 | 47001 ft | 430 kts | 300° |
| 2026-05-08 22:08 | 43.68832 | -104.76520 | 47004 ft | 430 kts | 300° |
| 2026-05-08 22:08 | 43.71673 | -104.83767 | 47013 ft | 430 kts | 300° |
| 2026-05-08 22:09 | 43.74491 | -104.90973 | 47003 ft | 428 kts | 300° |
| 2026-05-08 22:09 | 43.77312 | -104.98203 | 47001 ft | 428 kts | 300° |
| 2026-05-08 22:10 | 43.80132 | -105.05454 | 47010 ft | 430 kts | 300° |
| 2026-05-08 22:10 | 43.82962 | -105.12747 | 47011 ft | 429 kts | 300° |
| 2026-05-08 22:11 | 43.85768 | -105.19998 | 47027 ft | 428 kts | 300° |
| 2026-05-08 22:11 | 43.88574 | -105.27266 | 47008 ft | 428 kts | 300° |
| 2026-05-08 22:12 | 43.91365 | -105.34514 | 47021 ft | 429 kts | 300° |
| 2026-05-08 22:12 | 43.94152 | -105.41771 | 47009 ft | 429 kts | 300° |
| 2026-05-08 22:13 | 43.96948 | -105.49071 | 47029 ft | 429 kts | 300° |
| 2026-05-08 22:13 | 43.99744 | -105.56390 | 47016 ft | 427 kts | 300° |
| 2026-05-08 22:14 | 44.02513 | -105.63654 | 47020 ft | 427 kts | 300° |
| 2026-05-08 22:14 | 44.05286 | -105.70951 | 47009 ft | 429 kts | 300° |
| 2026-05-08 22:15 | 44.08080 | -105.78320 | 47001 ft | 428 kts | 300° |
| 2026-05-08 22:15 | 44.10841 | -105.85623 | 47031 ft | 427 kts | 300° |
| 2026-05-08 22:16 | 44.13600 | -105.92941 | 47036 ft | 428 kts | 300° |
| 2026-05-08 22:16 | 44.16356 | -106.00268 | 47014 ft | 428 kts | 300° |
| 2026-05-08 22:17 | 44.19094 | -106.07564 | 47026 ft | 428 kts | 300° |
| 2026-05-08 22:17 | 44.21908 | -106.14900 | 47030 ft | 428 kts | 301° |
| 2026-05-08 22:18 | 44.24735 | -106.22195 | 47021 ft | 428 kts | 301° |
| 2026-05-08 22:18 | 44.27542 | -106.29459 | 47024 ft | 427 kts | 300° |
| 2026-05-08 22:19 | 44.30350 | -106.36745 | 47014 ft | 427 kts | 301° |
| 2026-05-08 22:19 | 44.33152 | -106.44033 | 47018 ft | 426 kts | 301° |
| 2026-05-08 22:20 | 44.35957 | -106.51347 | 47020 ft | 426 kts | 301° |
| 2026-05-08 22:20 | 44.38742 | -106.58630 | 47009 ft | 426 kts | 300° |
| 2026-05-08 22:21 | 44.41537 | -106.65955 | 47014 ft | 427 kts | 300° |
| 2026-05-08 22:21 | 44.44319 | -106.73267 | 47028 ft | 428 kts | 300° |
| 2026-05-08 22:22 | 44.47117 | -106.80642 | 47016 ft | 428 kts | 300° |
| 2026-05-08 22:22 | 44.49904 | -106.88006 | 46654 ft | 434 kts | 300° |
| 2026-05-08 22:22 | 44.51311 | -106.91733 | 46231 ft | 434 kts | 300° |
| 2026-05-08 22:23 | 44.52707 | -106.95436 | 45769 ft | 430 kts | 300° |
| 2026-05-08 22:23 | 44.54096 | -106.99123 | 45320 ft | 425 kts | 300° |
| 2026-05-08 22:23 | 44.55460 | -107.02750 | 44863 ft | 420 kts | 300° |
| 2026-05-08 22:23 | 44.56813 | -107.06350 | 44403 ft | 417 kts | 300° |
| 2026-05-08 22:24 | 44.58154 | -107.09925 | 43939 ft | 414 kts | 301° |
| 2026-05-08 22:24 | 44.59470 | -107.13432 | 43484 ft | 412 kts | 300° |
| 2026-05-08 22:24 | 44.60800 | -107.16989 | 43022 ft | 409 kts | 300° |
| 2026-05-08 22:24 | 44.62115 | -107.20506 | 42564 ft | 407 kts | 301° |
| 2026-05-08 22:25 | 44.63419 | -107.24000 | 42057 ft | 404 kts | 301° |
| 2026-05-08 22:25 | 44.64713 | -107.27470 | 41599 ft | 402 kts | 301° |
| 2026-05-08 22:25 | 44.65993 | -107.30908 | 41158 ft | 401 kts | 301° |
| 2026-05-08 22:25 | 44.67281 | -107.34373 | 40716 ft | 401 kts | 301° |
| 2026-05-08 22:26 | 44.68568 | -107.37836 | 40273 ft | 400 kts | 301° |
| 2026-05-08 22:26 | 44.69853 | -107.41299 | 39798 ft | 399 kts | 301° |
| 2026-05-08 22:26 | 44.71123 | -107.44724 | 39350 ft | 400 kts | 300° |
| 2026-05-08 22:26 | 44.72405 | -107.48190 | 38905 ft | 401 kts | 301° |
| 2026-05-08 22:27 | 44.73700 | -107.51695 | 38463 ft | 404 kts | 301° |
| 2026-05-08 22:27 | 44.75002 | -107.55222 | 38007 ft | 406 kts | 300° |
| 2026-05-08 22:27 | 44.76312 | -107.58777 | 37551 ft | 406 kts | 300° |
| 2026-05-08 22:27 | 44.77597 | -107.62270 | 37103 ft | 406 kts | 301° |
| 2026-05-08 22:28 | 44.78909 | -107.65834 | 36658 ft | 407 kts | 300° |
| 2026-05-08 22:28 | 44.80212 | -107.69382 | 36219 ft | 410 kts | 300° |
| 2026-05-08 22:28 | 44.81523 | -107.72959 | 35763 ft | 412 kts | 300° |
| 2026-05-08 22:28 | 44.82838 | -107.76553 | 35309 ft | 415 kts | 300° |
| 2026-05-08 22:29 | 44.84156 | -107.80155 | 34854 ft | 410 kts | 299° |
| 2026-05-08 22:29 | 44.85430 | -107.83643 | 34413 ft | 399 kts | 300° |
| 2026-05-08 22:29 | 44.86690 | -107.87096 | 33991 ft | 399 kts | 300° |
| 2026-05-08 22:29 | 44.87974 | -107.90617 | 33576 ft | 403 kts | 299° |
| 2026-05-08 22:30 | 44.89247 | -107.94118 | 33135 ft | 406 kts | 299° |
| 2026-05-08 22:30 | 44.90533 | -107.97658 | 32682 ft | 408 kts | 300° |
| 2026-05-08 22:30 | 44.91829 | -108.01229 | 32229 ft | 410 kts | 299° |
| 2026-05-08 22:30 | 44.93111 | -108.04764 | 31780 ft | 411 kts | 300° |
| 2026-05-08 22:31 | 44.94407 | -108.08342 | 31328 ft | 412 kts | 299° |
| 2026-05-08 22:31 | 44.95723 | -108.11983 | 30859 ft | 415 kts | 299° |
| 2026-05-08 22:31 | 44.97022 | -108.15580 | 30405 ft | 416 kts | 299° |
| 2026-05-08 22:31 | 44.98328 | -108.19208 | 29937 ft | 414 kts | 299° |
| 2026-05-08 22:32 | 44.99623 | -108.22800 | 29478 ft | 410 kts | 299° |
| 2026-05-08 22:32 | 45.00917 | -108.26399 | 29017 ft | 409 kts | 298° |
| 2026-05-08 22:32 | 45.02189 | -108.29943 | 28565 ft | 406 kts | 299° |
| 2026-05-08 22:32 | 45.03457 | -108.33478 | 28117 ft | 404 kts | 299° |
| 2026-05-08 22:33 | 45.04723 | -108.37010 | 27667 ft | 402 kts | 298° |
| 2026-05-08 22:33 | 45.05975 | -108.40511 | 27232 ft | 399 kts | 298° |
| 2026-05-08 22:33 | 45.07207 | -108.43961 | 26803 ft | 398 kts | 298° |
| 2026-05-08 22:33 | 45.08453 | -108.47452 | 26364 ft | 395 kts | 298° |
| 2026-05-08 22:34 | 45.09680 | -108.50898 | 25923 ft | 394 kts | 298° |
| 2026-05-08 22:34 | 45.10911 | -108.54354 | 25496 ft | 393 kts | 298° |
| 2026-05-08 22:34 | 45.12123 | -108.57767 | 25063 ft | 390 kts | 298° |
| 2026-05-08 22:34 | 45.13348 | -108.61217 | 24630 ft | 388 kts | 298° |
| 2026-05-08 22:35 | 45.14555 | -108.64621 | 24196 ft | 387 kts | 298° |
| 2026-05-08 22:35 | 45.15763 | -108.68030 | 23765 ft | 384 kts | 297° |
| 2026-05-08 22:35 | 45.16953 | -108.71397 | 23347 ft | 382 kts | 297° |
| 2026-05-08 22:35 | 45.18136 | -108.74747 | 22919 ft | 381 kts | 297° |
| 2026-05-08 22:36 | 45.19304 | -108.78059 | 22500 ft | 379 kts | 297° |
| 2026-05-08 22:36 | 45.20480 | -108.81393 | 22072 ft | 376 kts | 297° |
| 2026-05-08 22:36 | 45.21645 | -108.84705 | 21655 ft | 376 kts | 297° |
| 2026-05-08 22:36 | 45.22800 | -108.87992 | 21236 ft | 374 kts | 297° |
| 2026-05-08 22:37 | 45.23953 | -108.91273 | 20816 ft | 372 kts | 297° |
| 2026-05-08 22:37 | 45.25097 | -108.94535 | 20398 ft | 370 kts | 297° |
| 2026-05-08 22:37 | 45.26232 | -108.97779 | 19980 ft | 369 kts | 297° |
| 2026-05-08 22:37 | 45.27369 | -109.01028 | 19570 ft | 368 kts | 297° |
| 2026-05-08 22:38 | 45.28501 | -109.04269 | 19172 ft | 366 kts | 297° |
| 2026-05-08 22:38 | 45.29621 | -109.07479 | 18767 ft | 364 kts | 296° |
| 2026-05-08 22:38 | 45.30740 | -109.10690 | 18390 ft | 362 kts | 296° |
| 2026-05-08 22:38 | 45.31859 | -109.13906 | 17995 ft | 361 kts | 296° |
| 2026-05-08 22:39 | 45.32962 | -109.17078 | 17602 ft | 360 kts | 296° |
| 2026-05-08 22:39 | 45.34149 | -109.20154 | 17194 ft | 359 kts | 306° |
| 2026-05-08 22:39 | 45.36053 | -109.22430 | 16797 ft | 361 kts | 328° |
| 2026-05-08 22:39 | 45.38274 | -109.24088 | 16431 ft | 361 kts | 330° |
| 2026-05-08 22:40 | 45.40488 | -109.25740 | 16023 ft | 359 kts | 329° |
| 2026-05-08 22:40 | 45.42690 | -109.27396 | 15614 ft | 358 kts | 330° |
| 2026-05-08 22:40 | 45.44868 | -109.29038 | 15243 ft | 355 kts | 330° |
| 2026-05-08 22:40 | 45.47046 | -109.30683 | 14864 ft | 355 kts | 329° |
| 2026-05-08 22:41 | 45.49219 | -109.32327 | 14479 ft | 354 kts | 329° |
| 2026-05-08 22:41 | 45.51402 | -109.33981 | 14089 ft | 353 kts | 329° |
| 2026-05-08 22:41 | 45.53553 | -109.35613 | 13707 ft | 353 kts | 330° |
| 2026-05-08 22:41 | 45.55705 | -109.37245 | 13313 ft | 351 kts | 330° |
| 2026-05-08 22:42 | 45.57861 | -109.38883 | 12924 ft | 349 kts | 330° |
| 2026-05-08 22:42 | 45.59975 | -109.40488 | 12543 ft | 347 kts | 330° |
| 2026-05-08 22:42 | 45.62102 | -109.42107 | 12163 ft | 346 kts | 330° |
| 2026-05-08 22:42 | 45.64238 | -109.43733 | 11778 ft | 344 kts | 330° |
| 2026-05-08 22:43 | 45.66326 | -109.45325 | 11393 ft | 342 kts | 330° |
| 2026-05-08 22:43 | 45.68399 | -109.46906 | 11016 ft | 341 kts | 330° |
| 2026-05-08 22:43 | 45.70457 | -109.48476 | 10641 ft | 329 kts | 330° |
| 2026-05-08 22:43 | 45.72449 | -109.49997 | 10270 ft | 316 kts | 330° |
| 2026-05-08 22:44 | 45.74357 | -109.51456 | 9931 ft | 305 kts | 330° |
| 2026-05-08 22:44 | 45.76060 | -109.53072 | 9593 ft | 292 kts | 314° |
| 2026-05-08 22:44 | 45.77318 | -109.55299 | 9295 ft | 282 kts | 307° |
| 2026-05-08 22:44 | 45.78489 | -109.57509 | 8985 ft | 275 kts | 307° |
| 2026-05-08 22:45 | 45.79636 | -109.59686 | 8681 ft | 272 kts | 307° |
| 2026-05-08 22:45 | 45.80758 | -109.61818 | 8379 ft | 271 kts | 307° |
| 2026-05-08 22:45 | 45.81889 | -109.63974 | 8086 ft | 273 kts | 307° |
| 2026-05-08 22:45 | 45.83026 | -109.66141 | 7795 ft | 268 kts | 306° |
| 2026-05-08 22:46 | 45.84011 | -109.68021 | 7529 ft | 263 kts | 306° |
| 2026-05-08 22:46 | 45.85086 | -109.70107 | 7227 ft | 257 kts | 302° |
| 2026-05-08 22:46 | 45.85518 | -109.72495 | 7051 ft | 247 kts | 266° |
| 2026-05-08 22:46 | 45.85174 | -109.74834 | 7050 ft | 231 kts | 257° |
| 2026-05-08 22:47 | 45.84776 | -109.76996 | 7019 ft | 218 kts | 257° |
| 2026-05-08 22:47 | 45.84385 | -109.79063 | 6867 ft | 215 kts | 257° |
| 2026-05-08 22:47 | 45.83987 | -109.81128 | 6684 ft | 213 kts | 257° |
| 2026-05-08 22:47 | 45.83587 | -109.83181 | 6507 ft | 213 kts | 257° |
| 2026-05-08 22:48 | 45.83186 | -109.85200 | 6462 ft | 214 kts | 256° |
| 2026-05-08 22:48 | 45.82774 | -109.87264 | 6467 ft | 213 kts | 255° |
| 2026-05-08 22:48 | 45.82366 | -109.89298 | 6478 ft | 215 kts | 256° |
| 2026-05-08 22:48 | 45.81951 | -109.91357 | 6484 ft | 214 kts | 256° |
| 2026-05-08 22:49 | 45.81533 | -109.93428 | 6487 ft | 215 kts | 256° |
| 2026-05-08 22:49 | 45.79848 | -109.96197 | 6246 ft | 172 kts | 206° |
| 2026-05-08 22:49 | 45.78715 | -109.96251 | 5862 ft | 160 kts | 168° |
| 2026-05-08 22:50 | 45.77813 | -109.95489 | 5573 ft | 145 kts | 137° |
| 2026-05-08 22:50 | 45.77216 | -109.94352 | 5476 ft | 145 kts | 118° |
| 2026-05-08 22:50 | 45.76906 | -109.92984 | 5471 ft | 146 kts | 91° |
| 2026-05-08 22:50 | 45.77057 | -109.91559 | 5474 ft | 144 kts | 66° |
| 2026-05-08 22:51 | 45.77611 | -109.90419 | 5477 ft | 140 kts | 35° |
| 2026-05-08 22:51 | 45.78498 | -109.89953 | 5326 ft | 134 kts | 358° |
| 2026-05-08 22:51 | 45.79388 | -109.90136 | 5196 ft | 127 kts | 341° |
| 2026-05-08 22:51 | 45.80220 | -109.90573 | 5140 ft | 126 kts | 328° |
| 2026-05-08 22:52 | 45.80928 | -109.91286 | 5199 ft | 123 kts | 319° |
| 2026-05-08 22:52 | 45.81567 | -109.92117 | 5310 ft | 126 kts | 307° |
| 2026-05-08 22:52 | 45.81751 | -109.93316 | 5280 ft | 128 kts | 258° |
| 2026-05-08 22:52 | 45.81376 | -109.94430 | 5011 ft | 128 kts | 247° |
| 2026-05-08 22:53 | 45.81097 | -109.95647 | 4678 ft | 124 kts | 257° |
| 2026-05-08 22:53 | 45.80889 | -109.96803 | 4471 ft | 122 kts | 258° |
| 2026-05-08 22:53 | 45.80693 | -109.97803 | 4485 ft | 78 kts | 255° |
| 2026-05-08 22:53 | 45.80587 | -109.98346 | 4490 ft | 41 kts | 258° |
| 2026-05-08 22:54 | 45.80536 | -109.98585 | 4490 ft | 20 kts | 255° |
| 2026-05-08 22:54 | 45.80521 | -109.98718 | 4489 ft | 9 kts | 298° |
| 2026-05-08 22:54 | 45.80568 | -109.98739 | 4489 ft | 6 kts | 29° |
| 2026-05-08 22:54 | 45.80570 | -109.98693 | 4489 ft | 4 kts | 114° |
| 2026-05-08 22:55 | 45.80558 | -109.98660 | 4489 ft | 5 kts | 119° |
| 2026-05-08 22:55 | 45.80539 | -109.98580 | 4490 ft | 9 kts | 87° |
| 2026-05-08 22:55 | 45.80555 | -109.98495 | 4490 ft | 7 kts | 76° |
| 2026-05-08 22:55 | 45.80568 | -109.98424 | 4490 ft | 7 kts | 73° |
| 2026-05-08 22:56 | 45.80582 | -109.98360 | 4490 ft | 6 kts | 73° |
| 2026-05-08 22:56 | 45.80594 | -109.98299 | 4489 ft | 6 kts | 75° |
| 2026-05-08 22:56 | 45.80605 | -109.98241 | 4489 ft | 5 kts | 76° |
| 2026-05-08 22:56 | 45.80622 | -109.98154 | 4488 ft | 15 kts | 74° |
| 2026-05-08 22:57 | 45.80666 | -109.97940 | 4486 ft | 24 kts | 73° |
| 2026-05-08 22:57 | 45.80712 | -109.97709 | 4484 ft | 24 kts | 74° |
| 2026-05-08 22:57 | 45.80758 | -109.97473 | 4479 ft | 24 kts | 76° |
| 2026-05-08 22:57 | 45.80803 | -109.97356 | 4476 ft | 10 kts | 6° |
| 2026-05-08 22:58 | 45.80852 | -109.97393 | 4477 ft | 2 kts | 310° |
| 2026-05-08 22:58 | 45.80864 | -109.97388 | 4477 ft | 4 kts | 48° |
| 2026-05-08 22:58 | 45.80866 | -109.97373 | 4476 ft | 0 kts | 92° |